Time;durP1;ratioP1;P1;durP2;ratioP2;P2;SDS_P1;SDS_P2;PMS_P1;PMS_P2;Temp;Humidity;BMP_temperature;BMP_pressure;BME280_temperature;BME280_humidity;BME280_pressure;Samples;Min_cycle;Max_cycle;Signal;HPM_P1;HPM_P2
2021/03/01 00:00:21;;;;;;;55.80;26.35;;;4.30;94.20;;;;;;4966246;28;20121;-77
2021/03/01 00:02:47;;;;;;;56.53;27.08;;;4.40;94.40;;;;;;5010497;28;20028;-77
2021/03/01 00:05:14;;;;;;;49.65;23.95;;;4.30;94.40;;;;;;4992154;28;20060;-77
2021/03/01 00:07:39;;;;;;;55.83;26.98;;;4.30;94.30;;;;;;5026927;28;20458;-77
2021/03/01 00:10:05;;;;;;;53.80;26.27;;;4.40;94.60;;;;;;4980418;28;21943;-77
2021/03/01 00:12:31;;;;;;;56.65;28.00;;;4.30;94.60;;;;;;5026124;28;20038;-77
2021/03/01 00:14:56;;;;;;;45.08;24.05;;;4.30;94.70;;;;;;4992360;28;20245;-77
2021/03/01 00:17:22;;;;;;;52.08;25.55;;;4.30;94.70;;;;;;4989428;28;20032;-77
2021/03/01 00:19:47;;;;;;;58.38;24.30;;;4.40;94.50;;;;;;5012826;28;20037;-77
2021/03/01 00:22:13;;;;;;;48.92;24.65;;;4.30;94.70;;;;;;4996319;28;20034;-77
2021/03/01 00:24:38;;;;;;;60.55;28.80;;;4.40;94.70;;;;;;5008595;28;20040;-77
2021/03/01 00:27:04;;;;;;;47.80;22.83;;;4.40;94.70;;;;;;5009240;28;20034;-77
2021/03/01 00:29:30;;;;;;;50.05;24.70;;;4.40;95.00;;;;;;5003578;28;20038;-77
2021/03/01 00:31:55;;;;;;;55.80;25.35;;;4.40;94.60;;;;;;4993192;28;20036;-77
2021/03/01 00:34:21;;;;;;;59.28;26.80;;;4.40;94.60;;;;;;4982229;28;20044;-77
2021/03/01 00:36:46;;;;;;;49.05;24.02;;;4.40;94.80;;;;;;4998289;28;20052;-77
2021/03/01 00:39:12;;;;;;;50.33;23.23;;;4.30;94.90;;;;;;5004649;28;20067;-77
2021/03/01 00:41:37;;;;;;;51.38;23.27;;;4.30;94.90;;;;;;5014934;28;20125;-77
2021/03/01 00:44:03;;;;;;;43.40;22.80;;;4.30;95.00;;;;;;5014665;28;20116;-77
2021/03/01 00:46:28;;;;;;;44.63;21.45;;;4.30;95.00;;;;;;4994441;28;20056;-77
2021/03/01 00:48:54;;;;;;;44.00;21.73;;;4.30;95.20;;;;;;4994647;28;20132;-77
2021/03/01 00:51:19;;;;;;;47.80;22.23;;;4.30;95.10;;;;;;4991684;28;20544;-77
2021/03/01 00:53:45;;;;;;;49.22;22.50;;;4.30;94.80;;;;;;5009387;28;20095;-77
2021/03/01 00:56:10;;;;;;;45.90;21.52;;;4.30;94.80;;;;;;5005099;28;20482;-77
2021/03/01 00:58:36;;;;;;;42.80;20.85;;;4.30;94.60;;;;;;5004439;28;20038;-77
2021/03/01 01:01:01;;;;;;;43.00;22.15;;;4.30;94.70;;;;;;4992807;28;20113;-77
2021/03/01 01:03:27;;;;;;;50.80;22.75;;;4.30;94.70;;;;;;5002527;28;20046;-77
2021/03/01 01:05:52;;;;;;;42.38;20.95;;;4.30;94.70;;;;;;4992259;28;20029;-77
2021/03/01 01:08:18;;;;;;;46.70;23.88;;;4.30;94.70;;;;;;5018769;28;20586;-77
2021/03/01 01:10:43;;;;;;;43.45;22.67;;;4.30;94.80;;;;;;5002850;28;20839;-77
2021/03/01 01:13:09;;;;;;;44.65;22.80;;;4.30;94.90;;;;;;4998207;28;20033;-77
2021/03/01 01:15:35;;;;;;;47.72;21.75;;;4.30;95.00;;;;;;5025080;28;20025;-77
2021/03/01 01:18:00;;;;;;;46.33;21.38;;;4.30;94.80;;;;;;4982636;28;20497;-77
2021/03/01 01:20:26;;;;;;;46.53;22.08;;;4.20;94.60;;;;;;5006648;28;20076;-77
2021/03/01 01:22:51;;;;;;;49.00;22.17;;;4.30;94.60;;;;;;4999515;28;20473;-77
2021/03/01 01:25:17;;;;;;;47.00;23.20;;;4.30;94.80;;;;;;4988803;28;20034;-77
2021/03/01 01:27:43;;;;;;;45.03;22.85;;;4.30;94.70;;;;;;5021869;28;20064;-77
2021/03/01 01:30:13;;;;;;;50.50;23.58;;;4.20;94.80;;;;;;4986825;28;20125;-77
2021/03/01 01:32:38;;;;;;;40.28;19.48;;;4.20;94.80;;;;;;5016221;28;20137;-77
2021/03/01 01:35:05;;;;;;;41.80;19.45;;;4.20;94.90;;;;;;4990563;28;20525;-77
2021/03/01 01:37:31;;;;;;;41.47;21.45;;;4.20;94.70;;;;;;5008074;28;20544;-77
2021/03/01 01:39:56;;;;;;;43.55;20.10;;;4.20;94.80;;;;;;4984114;28;20025;-77
2021/03/01 01:42:22;;;;;;;42.60;21.35;;;4.20;94.80;;;;;;4987141;28;20030;-77
2021/03/01 01:44:47;;;;;;;33.65;17.33;;;4.20;94.70;;;;;;4998031;28;20052;-77
2021/03/01 01:47:13;;;;;;;38.50;19.25;;;4.20;94.70;;;;;;4980915;28;20367;-77
2021/03/01 01:49:38;;;;;;;32.63;16.08;;;4.20;94.50;;;;;;5023601;28;20029;-77
2021/03/01 01:52:04;;;;;;;34.97;18.45;;;4.20;94.40;;;;;;4977666;28;20042;-77
2021/03/01 01:54:29;;;;;;;34.67;18.02;;;4.20;94.30;;;;;;5015826;28;20393;-77
2021/03/01 01:56:55;;;;;;;35.40;17.85;;;4.20;94.30;;;;;;4991932;28;20049;-77
2021/03/01 01:59:20;;;;;;;37.63;18.33;;;4.20;94.20;;;;;;5004279;28;20545;-77
2021/03/01 02:01:46;;;;;;;35.25;18.80;;;4.20;94.10;;;;;;4989456;28;20146;-77
2021/03/01 02:04:21;;;;;;;42.75;18.17;;;4.10;94.30;;;;;;4977946;28;20030;-77
2021/03/01 02:06:57;;;;;;;37.53;19.42;;;4.10;94.60;;;;;;5007375;28;20033;-77
2021/03/01 02:09:45;;;;;;;33.65;17.00;;;4.10;94.60;;;;;;4983142;28;20034;-77
2021/03/01 02:12:49;;;;;;;37.58;17.20;;;4.10;94.50;;;;;;5006377;28;20120;-77
2021/03/01 02:15:37;;;;;;;31.10;16.85;;;4.10;94.60;;;;;;4983519;28;20030;-77
2021/03/01 02:18:03;;;;;;;34.72;18.40;;;4.00;94.60;;;;;;4991954;28;20034;-77
2021/03/01 02:20:28;;;;;;;37.17;19.15;;;4.10;94.50;;;;;;5010713;28;20503;-77
2021/03/01 02:22:54;;;;;;;40.10;18.73;;;4.00;94.60;;;;;;4998643;28;20037;-77
2021/03/01 02:25:23;;;;;;;42.60;19.08;;;4.00;94.70;;;;;;5006855;28;20073;-77
2021/03/01 02:27:54;;;;;;;36.22;18.73;;;4.00;94.50;;;;;;4963792;28;20394;-77
2021/03/01 02:30:28;;;;;;;39.55;19.55;;;4.10;94.40;;;;;;4999844;28;20552;-77
2021/03/01 02:32:59;;;;;;;43.00;20.05;;;4.00;94.70;;;;;;4990741;28;20045;-77
2021/03/01 02:35:24;;;;;;;36.22;17.98;;;3.90;94.80;;;;;;4985405;28;20030;-77
2021/03/01 02:37:50;;;;;;;36.63;18.38;;;3.90;94.90;;;;;;4985542;28;20119;-77
2021/03/01 02:40:17;;;;;;;36.50;18.05;;;4.00;94.90;;;;;;5005947;28;20031;-77
2021/03/01 02:42:42;;;;;;;39.25;17.70;;;3.90;94.80;;;;;;5023544;28;20030;-77
2021/03/01 02:45:08;;;;;;;37.72;18.98;;;4.00;94.60;;;;;;4982205;28;20029;-78
2021/03/01 02:47:34;;;;;;;38.00;20.02;;;4.00;94.50;;;;;;5009458;28;20034;-76
2021/03/01 02:50:00;;;;;;;37.88;17.15;;;4.00;94.80;;;;;;4993930;28;20033;-77
2021/03/01 02:52:25;;;;;;;37.53;18.23;;;3.90;94.80;;;;;;5022919;28;20113;-77
2021/03/01 02:54:51;;;;;;;38.05;18.95;;;3.90;94.80;;;;;;4997438;28;20021;-77
2021/03/01 02:57:17;;;;;;;37.40;19.13;;;3.90;94.80;;;;;;5005775;28;20436;-77
2021/03/01 02:59:45;;;;;;;34.63;18.85;;;3.90;94.90;;;;;;5007998;28;20049;-79
2021/03/01 03:02:11;;;;;;;30.85;18.25;;;3.80;94.90;;;;;;5008183;28;20026;-78
2021/03/01 03:04:37;;;;;;;43.28;19.50;;;3.90;94.90;;;;;;5008826;28;20022;-76
2021/03/01 03:07:03;;;;;;;40.00;19.83;;;3.80;94.90;;;;;;4984957;28;20025;-77
2021/03/01 03:09:28;;;;;;;46.38;21.48;;;3.90;95.10;;;;;;5009085;28;20038;-76
2021/03/01 03:11:54;;;;;;;46.10;21.08;;;3.80;95.20;;;;;;4995710;28;20620;-77
2021/03/01 03:14:21;;;;;;;43.92;19.58;;;3.80;95.20;;;;;;5006927;28;20036;-76
2021/03/01 03:16:48;;;;;;;40.03;19.70;;;3.80;95.00;;;;;;5010902;28;20041;-76
2021/03/01 03:19:14;;;;;;;40.33;19.88;;;3.80;94.80;;;;;;4992053;28;20033;-77
2021/03/01 03:21:39;;;;;;;34.92;17.45;;;3.90;94.70;;;;;;5024693;28;20512;-77
2021/03/01 03:24:05;;;;;;;41.35;19.30;;;3.90;94.60;;;;;;5007658;28;20036;-77
2021/03/01 03:26:31;;;;;;;35.60;18.23;;;3.90;94.40;;;;;;5022753;28;20042;-77
2021/03/01 03:28:56;;;;;;;37.80;18.67;;;3.90;94.40;;;;;;5011973;28;20083;-77
2021/03/01 03:31:22;;;;;;;36.70;18.17;;;3.90;94.50;;;;;;5004689;28;20030;-77
2021/03/01 03:33:47;;;;;;;40.72;19.85;;;3.90;94.40;;;;;;5027505;28;20446;-77
2021/03/01 03:36:13;;;;;;;40.33;17.73;;;3.80;94.50;;;;;;4974320;28;20561;-77
2021/03/01 03:38:59;;;;;;;37.03;19.20;;;3.90;94.60;;;;;;5009497;28;20030;-77
2021/03/01 03:41:26;;;;;;;40.30;19.67;;;3.80;94.70;;;;;;4978279;28;20036;-77
2021/03/01 03:43:51;;;;;;;38.78;18.30;;;3.80;94.60;;;;;;4985694;28;20040;-78
2021/03/01 03:46:17;;;;;;;36.22;17.92;;;3.80;94.90;;;;;;5019772;28;20501;-77
2021/03/01 03:48:43;;;;;;;36.60;17.73;;;3.80;94.70;;;;;;5004981;28;20048;-77
2021/03/01 03:51:10;;;;;;;39.50;18.65;;;3.80;94.70;;;;;;4981821;28;20029;-77
2021/03/01 03:53:43;;;;;;;38.67;19.63;;;3.80;94.80;;;;;;5001462;28;20548;-77
2021/03/01 03:56:08;;;;;;;45.72;21.63;;;3.80;94.60;;;;;;4989747;28;20392;-77
2021/03/01 03:58:36;;;;;;;33.97;15.02;;;3.80;94.60;;;;;;5015853;28;20037;-77
2021/03/01 04:01:02;;;;;;;33.90;17.52;;;3.80;94.30;;;;;;4990152;28;20529;-77
2021/03/01 04:03:27;;;;;;;35.17;15.95;;;3.90;94.10;;;;;;5001197;28;20103;-77
2021/03/01 04:05:54;;;;;;;44.88;20.15;;;3.90;94.10;;;;;;4982026;28;20037;-77
2021/03/01 04:08:19;;;;;;;36.20;16.38;;;3.90;94.20;;;;;;5006640;28;20132;-77
2021/03/01 04:10:47;;;;;;;40.08;18.95;;;3.90;94.30;;;;;;5014001;28;20120;-77
2021/03/01 04:13:13;;;;;;;36.05;17.15;;;3.90;94.10;;;;;;4974694;28;20044;-77
2021/03/01 04:15:41;;;;;;;41.13;17.85;;;3.90;94.10;;;;;;5021548;28;20120;-77
2021/03/01 04:18:06;;;;;;;32.30;15.93;;;3.80;94.10;;;;;;4978998;28;20030;-77
2021/03/01 04:20:32;;;;;;;32.20;13.93;;;3.80;94.00;;;;;;5003087;28;20490;-77
2021/03/01 04:22:57;;;;;;;35.05;17.10;;;3.90;94.10;;;;;;4988679;28;20065;-77
2021/03/01 04:25:23;;;;;;;36.95;17.02;;;4.00;93.90;;;;;;4968179;28;20025;-77
2021/03/01 04:27:48;;;;;;;39.30;18.67;;;3.90;94.00;;;;;;4986640;28;20040;-77
2021/03/01 04:30:14;;;;;;;40.58;18.42;;;3.90;93.90;;;;;;4992202;28;20029;-77
2021/03/01 04:32:43;;;;;;;40.20;18.10;;;3.90;93.90;;;;;;5008563;28;20040;-77
2021/03/01 04:35:09;;;;;;;44.20;18.35;;;3.90;93.80;;;;;;4981998;28;20456;-77
2021/03/01 04:37:34;;;;;;;34.78;18.27;;;3.90;94.00;;;;;;4998405;28;20057;-78
2021/03/01 04:40:00;;;;;;;42.70;19.08;;;3.80;93.90;;;;;;5007753;28;20029;-77
2021/03/01 04:42:27;;;;;;;44.95;20.05;;;3.90;94.10;;;;;;4989712;28;20388;-77
2021/03/01 04:44:53;;;;;;;42.53;20.35;;;3.80;94.00;;;;;;4981149;28;20108;-77
2021/03/01 04:47:20;;;;;;;42.60;18.80;;;3.80;94.00;;;;;;5004746;28;20121;-77
2021/03/01 04:49:45;;;;;;;44.42;19.88;;;3.80;94.00;;;;;;5014763;28;20031;-77
2021/03/01 04:52:12;;;;;;;45.10;19.52;;;3.80;94.00;;;;;;4967925;28;20404;-77
2021/03/01 04:54:37;;;;;;;49.40;20.90;;;3.80;94.00;;;;;;5028545;28;20038;-77
2021/03/01 04:57:03;;;;;;;41.00;18.55;;;3.80;94.10;;;;;;4980260;28;20794;-77
2021/03/01 04:59:28;;;;;;;38.00;18.88;;;3.80;94.00;;;;;;5027712;28;20098;-77
2021/03/01 05:01:54;;;;;;;40.40;18.98;;;3.80;94.00;;;;;;4980580;28;20552;-77
2021/03/01 05:04:19;;;;;;;39.10;19.38;;;3.80;94.00;;;;;;5005838;28;20029;-76
2021/03/01 05:06:45;;;;;;;39.25;18.27;;;3.80;94.10;;;;;;4994541;28;20463;-77
2021/03/01 05:09:11;;;;;;;38.67;17.48;;;3.80;94.20;;;;;;4993822;28;20042;-77
2021/03/01 05:11:37;;;;;;;41.50;19.38;;;3.80;94.20;;;;;;5005364;28;20048;-77
2021/03/01 05:14:04;;;;;;;45.13;19.88;;;3.80;94.10;;;;;;4995934;28;20180;-77
2021/03/01 05:16:29;;;;;;;43.40;19.27;;;3.80;94.20;;;;;;5026976;28;20586;-77
2021/03/01 05:18:55;;;;;;;42.08;18.40;;;3.90;94.00;;;;;;4982648;28;20104;-77
2021/03/01 05:21:21;;;;;;;43.65;20.08;;;3.80;94.10;;;;;;5003404;28;20378;-77
2021/03/01 05:23:47;;;;;;;41.35;18.05;;;3.80;94.00;;;;;;4977438;28;20041;-77
2021/03/01 05:26:13;;;;;;;40.00;18.17;;;3.80;94.00;;;;;;4981277;28;20026;-77
2021/03/01 05:28:38;;;;;;;44.15;19.95;;;3.80;94.10;;;;;;5024792;28;20048;-77
2021/03/01 05:31:04;;;;;;;39.15;18.08;;;3.80;94.00;;;;;;4990309;28;20033;-77
2021/03/01 05:33:31;;;;;;;37.17;18.08;;;3.80;94.10;;;;;;5005745;28;20037;-77
2021/03/01 05:35:57;;;;;;;40.10;18.45;;;3.80;94.00;;;;;;5006488;28;20463;-77
2021/03/01 05:38:22;;;;;;;38.75;19.73;;;3.90;94.00;;;;;;5021053;28;20105;-77
2021/03/01 05:40:48;;;;;;;42.22;18.95;;;3.80;94.00;;;;;;4994002;28;20029;-77
2021/03/01 05:43:14;;;;;;;42.00;19.42;;;3.80;94.10;;;;;;4996131;28;20486;-76
2021/03/01 05:45:40;;;;;;;42.88;18.65;;;3.80;94.40;;;;;;5018839;28;20053;-78
2021/03/01 05:48:08;;;;;;;40.70;18.00;;;3.90;94.10;;;;;;5006953;28;20033;-78
2021/03/01 05:50:34;;;;;;;44.35;20.67;;;3.90;94.00;;;;;;4996323;28;20049;-78
2021/03/01 05:52:59;;;;;;;42.45;19.08;;;3.80;93.90;;;;;;4991567;28;20103;-78
2021/03/01 05:55:25;;;;;;;47.53;21.80;;;3.90;93.80;;;;;;5009806;28;20030;-78
2021/03/01 05:57:50;;;;;;;44.47;19.17;;;3.90;93.90;;;;;;4999063;28;20077;-76
2021/03/01 06:00:16;;;;;;;40.83;19.23;;;3.90;94.00;;;;;;4994152;28;20109;-78
2021/03/01 06:02:42;;;;;;;49.45;19.33;;;3.80;93.90;;;;;;4999411;28;20041;-78
2021/03/01 06:05:08;;;;;;;40.92;18.10;;;3.80;94.20;;;;;;4982965;28;20044;-78
2021/03/01 06:07:33;;;;;;;40.42;18.77;;;3.80;94.10;;;;;;4988806;28;20039;-78
2021/03/01 06:10:00;;;;;;;37.55;16.70;;;3.80;94.00;;;;;;4996308;28;20033;-78
2021/03/01 06:12:25;;;;;;;43.92;17.58;;;3.90;94.00;;;;;;5015783;28;20390;-76
2021/03/01 06:14:51;;;;;;;32.22;16.60;;;3.90;93.80;;;;;;4987635;28;20028;-76
2021/03/01 06:17:17;;;;;;;36.13;16.50;;;3.90;94.00;;;;;;5006174;28;20036;-78
2021/03/01 06:19:51;;;;;;;32.90;15.52;;;3.90;93.80;;;;;;4993545;28;20057;-77
2021/03/01 06:22:17;;;;;;;35.42;16.70;;;3.90;93.90;;;;;;5008758;28;20033;-76
2021/03/01 06:24:43;;;;;;;35.60;15.52;;;3.80;94.00;;;;;;5014173;28;20038;-78
2021/03/01 06:27:09;;;;;;;32.95;15.68;;;3.80;94.00;;;;;;4979391;28;20029;-78
2021/03/01 06:30:13;;;;;;;32.85;16.33;;;3.80;93.90;;;;;;5006942;28;20034;-78
2021/03/01 06:32:39;;;;;;;27.95;15.65;;;3.80;94.00;;;;;;4984057;28;20046;-76
2021/03/01 06:35:26;;;;;;;24.85;13.43;;;3.80;94.10;;;;;;4981427;28;20038;-78
2021/03/01 06:38:12;;;;;;;29.80;14.80;;;3.70;94.30;;;;;;4995461;28;20040;-78
2021/03/01 06:40:38;;;;;;;28.33;14.05;;;3.70;94.30;;;;;;5008547;28;20060;-78
2021/03/01 06:43:13;;;;;;;21.42;12.20;;;3.70;94.30;;;;;;5009704;28;20445;-78
2021/03/01 06:45:39;;;;;;;22.73;12.68;;;3.70;94.30;;;;;;5011787;28;20504;-78
2021/03/01 06:48:05;;;;;;;23.15;11.20;;;3.70;94.30;;;;;;5016310;28;20022;-78
2021/03/01 06:50:35;;;;;;;27.00;12.57;;;3.70;94.20;;;;;;5024910;28;20044;-76
2021/03/01 06:53:11;;;;;;;20.75;10.88;;;3.70;94.00;;;;;;4984397;28;20029;-79
2021/03/01 06:55:37;;;;;;;27.45;13.50;;;3.70;94.00;;;;;;5025549;28;20041;-79
2021/03/01 06:58:18;;;;;;;28.27;14.57;;;3.70;93.90;;;;;;4996943;28;20064;-78
2021/03/01 07:00:44;;;;;;;24.67;13.07;;;3.70;94.00;;;;;;4994708;28;20039;-79
2021/03/01 07:03:22;;;;;;;24.50;12.30;;;3.70;94.00;;;;;;4970522;28;20033;-79
2021/03/01 07:05:52;;;;;;;22.70;12.32;;;3.80;94.00;;;;;;5001408;28;20033;-78
2021/03/01 07:08:39;;;;;;;22.70;11.50;;;3.80;94.10;;;;;;4975590;28;20075;-78
2021/03/01 07:11:25;;;;;;;22.92;13.07;;;3.80;94.10;;;;;;5000689;28;20061;-79
2021/03/01 07:13:59;;;;;;;29.35;14.60;;;3.80;94.30;;;;;;4990565;28;20063;-79
2021/03/01 07:16:25;;;;;;;24.30;11.82;;;3.80;93.90;;;;;;5009033;28;20030;-78
2021/03/01 07:18:51;;;;;;;27.15;13.60;;;3.90;94.00;;;;;;4981148;28;20035;-78
2021/03/01 07:21:17;;;;;;;28.33;12.38;;;3.80;94.20;;;;;;5011828;28;20081;-78
2021/03/01 07:23:45;;;;;;;22.77;12.52;;;3.80;94.40;;;;;;5000607;28;20049;-78
2021/03/01 07:26:11;;;;;;;27.30;11.85;;;3.90;94.10;;;;;;4997404;28;20317;-78
2021/03/01 07:28:41;;;;;;;25.58;12.55;;;3.90;94.00;;;;;;5004193;28;20048;-78
2021/03/01 07:31:07;;;;;;;26.00;13.00;;;3.90;94.00;;;;;;5011040;28;20374;-79
2021/03/01 07:33:32;;;;;;;29.10;14.90;;;3.90;94.20;;;;;;5005972;28;20034;-78
2021/03/01 07:35:58;;;;;;;32.03;14.07;;;3.90;94.20;;;;;;5011261;28;20083;-79
2021/03/01 07:38:23;;;;;;;25.13;12.68;;;4.00;94.10;;;;;;5009967;28;20073;-78
2021/03/01 07:40:49;;;;;;;32.13;14.30;;;4.00;94.20;;;;;;5000963;28;20040;-78
2021/03/01 07:43:14;;;;;;;27.85;12.80;;;4.00;94.30;;;;;;4989589;28;20656;-77
2021/03/01 07:45:40;;;;;;;25.20;12.98;;;4.00;94.30;;;;;;5008829;28;20062;-77
2021/03/01 07:48:15;;;;;;;27.10;10.65;;;4.10;94.20;;;;;;4992550;28;20157;-77
2021/03/01 07:50:45;;;;;;;30.98;13.55;;;4.10;93.90;;;;;;4994928;28;20044;-78
2021/03/01 07:53:45;;;;;;;27.55;13.65;;;4.10;94.50;;;;;;5007997;28;20081;-78
2021/03/01 07:56:22;;;;;;;31.20;14.07;;;4.10;94.60;;;;;;4997358;28;20037;-78
2021/03/01 07:58:57;;;;;;;25.83;13.35;;;4.20;94.50;;;;;;5013034;28;20244;-78
2021/03/01 08:01:23;;;;;;;25.17;13.23;;;4.20;94.70;;;;;;4997330;28;20036;-77
2021/03/01 08:03:49;;;;;;;18.77;9.23;;;4.20;94.60;;;;;;5008121;28;20488;-77
2021/03/01 08:06:14;;;;;;;22.38;12.52;;;4.30;94.50;;;;;;4988560;28;20140;-78
2021/03/01 08:08:47;;;;;;;27.23;12.80;;;4.40;94.50;;;;;;5000644;28;20048;-78
2021/03/01 08:11:13;;;;;;;22.20;11.73;;;4.40;94.70;;;;;;5002977;28;20093;-78
2021/03/01 08:13:39;;;;;;;23.65;12.82;;;4.40;94.50;;;;;;5009683;28;20033;-77
2021/03/01 08:16:22;;;;;;;28.17;14.77;;;4.50;94.60;;;;;;4996761;28;20037;-78
2021/03/01 08:18:52;;;;;;;26.67;13.85;;;4.50;94.40;;;;;;4995454;28;20472;-78
2021/03/01 08:21:18;;;;;;;28.05;11.75;;;4.60;94.80;;;;;;5010204;28;20085;-78
2021/03/01 08:23:43;;;;;;;32.50;14.48;;;4.60;94.50;;;;;;5025381;28;20037;-78
2021/03/01 08:26:10;;;;;;;29.83;15.60;;;4.70;94.80;;;;;;4987352;28;20033;-78
2021/03/01 08:28:37;;;;;;;25.95;12.93;;;4.80;94.70;;;;;;5018835;28;20525;-78
2021/03/01 08:31:08;;;;;;;22.73;12.52;;;4.80;94.70;;;;;;5007790;28;20056;-78
2021/03/01 08:33:34;;;;;;;28.67;14.45;;;4.80;93.80;;;;;;5034451;28;20033;-78
2021/03/01 08:36:21;;;;;;;24.38;12.43;;;4.90;94.60;;;;;;5002403;28;20029;-78
2021/03/01 08:38:54;;;;;;;25.05;12.77;;;4.90;94.60;;;;;;4997291;28;20484;-77
2021/03/01 08:41:47;;;;;;;25.58;12.73;;;5.00;94.90;;;;;;5002549;28;20124;-78
2021/03/01 08:44:20;;;;;;;23.23;11.07;;;5.00;94.20;;;;;;4992568;28;20065;-78
2021/03/01 08:46:46;;;;;;;18.73;10.50;;;5.10;94.40;;;;;;4999529;28;20124;-78
2021/03/01 08:49:11;;;;;;;23.40;12.15;;;5.10;94.20;;;;;;4988497;28;20447;-78
2021/03/01 08:51:37;;;;;;;26.85;14.10;;;5.10;94.60;;;;;;4983537;28;20076;-78
2021/03/01 08:54:02;;;;;;;29.85;14.60;;;5.20;94.50;;;;;;4981387;28;20437;-78
2021/03/01 08:56:28;;;;;;;21.75;11.80;;;5.30;94.70;;;;;;5020406;28;20552;-78
2021/03/01 08:58:53;;;;;;;25.25;12.20;;;5.30;94.80;;;;;;5006656;28;20400;-78
2021/03/01 09:01:19;;;;;;;18.38;10.93;;;5.40;94.60;;;;;;5013140;28;20033;-78
2021/03/01 09:03:45;;;;;;;20.35;10.93;;;5.40;94.60;;;;;;4985023;28;20543;-78
2021/03/01 09:06:21;;;;;;;20.60;11.98;;;5.50;94.10;;;;;;4978264;28;20053;-78
2021/03/01 09:08:53;;;;;;;20.25;11.55;;;5.60;94.90;;;;;;5015799;28;20047;-78
2021/03/01 09:11:21;;;;;;;19.83;10.10;;;5.60;94.70;;;;;;4979199;28;20124;-78
2021/03/01 09:13:48;;;;;;;20.55;11.10;;;5.70;94.40;;;;;;4983323;28;20026;-77
2021/03/01 09:16:15;;;;;;;21.40;12.27;;;5.70;95.00;;;;;;4984992;28;20390;-77
2021/03/01 09:18:41;;;;;;;21.58;11.38;;;5.80;95.10;;;;;;5018759;28;20030;-78
2021/03/01 09:21:08;;;;;;;22.67;11.85;;;5.90;95.20;;;;;;4977081;28;20040;-78
2021/03/01 09:23:42;;;;;;;19.60;10.10;;;5.90;94.90;;;;;;4991101;28;20057;-78
2021/03/01 09:26:18;;;;;;;21.05;11.13;;;6.00;95.00;;;;;;4986691;28;20463;-78
2021/03/01 09:28:43;;;;;;;18.92;11.00;;;6.00;94.70;;;;;;5027895;28;20109;-78
2021/03/01 09:31:10;;;;;;;22.95;12.60;;;6.10;95.00;;;;;;4979150;28;20112;-78
2021/03/01 09:33:37;;;;;;;25.85;13.10;;;6.20;94.90;;;;;;5026851;28;20041;-78
2021/03/01 09:36:03;;;;;;;21.70;10.98;;;6.30;95.20;;;;;;4995454;28;20439;-78
2021/03/01 09:38:29;;;;;;;22.33;12.13;;;6.30;93.90;;;;;;4999540;28;20180;-78
2021/03/01 09:41:08;;;;;;;23.83;12.63;;;6.40;95.10;;;;;;4996738;28;20761;-77
2021/03/01 09:43:34;;;;;;;21.23;11.18;;;6.60;95.20;;;;;;5026702;28;20030;-78
2021/03/01 09:46:00;;;;;;;18.42;9.65;;;6.70;95.00;;;;;;4999088;28;20040;-78
2021/03/01 09:48:28;;;;;;;18.75;10.77;;;6.70;93.90;;;;;;5002154;28;20408;-77
2021/03/01 09:50:54;;;;;;;19.23;9.77;;;6.70;94.50;;;;;;4988700;28;20043;-77
2021/03/01 09:53:20;;;;;;;19.42;11.60;;;6.80;94.50;;;;;;5019158;28;20128;-78
2021/03/01 09:55:45;;;;;;;21.80;11.98;;;6.70;94.80;;;;;;5002070;28;20033;-78
2021/03/01 09:58:22;;;;;;;19.65;11.45;;;7.00;95.30;;;;;;5014997;28;20100;-78
2021/03/01 10:00:47;;;;;;;21.65;11.57;;;7.10;95.30;;;;;;5002221;28;20044;-78
2021/03/01 10:03:13;;;;;;;18.30;9.68;;;7.10;95.30;;;;;;4991017;28;20084;-78
2021/03/01 10:05:45;;;;;;;20.17;11.48;;;7.30;95.40;;;;;;5014439;28;20485;-78
2021/03/01 10:08:10;;;;;;;18.00;10.45;;;7.40;95.40;;;;;;4998876;28;20400;-77
2021/03/01 10:10:38;;;;;;;19.77;10.98;;;7.50;95.20;;;;;;5028669;28;20040;-77
2021/03/01 10:13:04;;;;;;;21.67;11.50;;;7.70;95.50;;;;;;4981174;28;20096;-78
2021/03/01 10:15:40;;;;;;;22.15;12.68;;;7.70;95.50;;;;;;4996489;28;20096;-78
2021/03/01 10:18:06;;;;;;;;;;;7.90;95.60;;;;;;4999265;28;20041;-78
2021/03/01 10:20:32;;;;;;;23.55;12.80;;;8.00;95.60;;;;;;5011588;28;20012;-77
2021/03/01 10:22:59;;;;;;;21.92;12.23;;;8.10;95.90;;;;;;4986525;28;20408;-78
2021/03/01 10:26:16;;;;;;;21.38;12.77;;;8.20;95.60;;;;;;4993830;28;20224;-78
2021/03/01 10:28:43;;;;;;;19.67;11.45;;;8.40;95.40;;;;;;4989281;28;20440;-78
2021/03/01 10:31:10;;;;;;;18.33;10.75;;;8.40;95.30;;;;;;4991665;28;20037;-77
2021/03/01 10:33:55;;;;;;;18.73;11.00;;;8.40;94.90;;;;;;4995117;28;20035;-78
2021/03/01 10:36:21;;;;;;;17.85;11.20;;;8.50;95.30;;;;;;4996667;28;20682;-78
2021/03/01 10:39:14;;;;;;;21.58;12.77;;;8.60;95.00;;;;;;5016304;28;20029;-78
2021/03/01 10:41:45;;;;;;;17.77;10.82;;;8.50;94.50;;;;;;5032135;28;20505;-78
2021/03/01 10:44:12;;;;;;;19.98;12.55;;;8.60;94.30;;;;;;4987894;28;20054;-78
2021/03/01 10:46:39;;;;;;;22.95;10.82;;;8.60;94.00;;;;;;5012968;28;20129;-77
2021/03/01 10:49:24;;;;;;;22.00;12.18;;;8.60;94.10;;;;;;5013224;28;20109;-77
2021/03/01 10:51:50;;;;;;;19.95;10.45;;;8.60;93.80;;;;;;4987775;28;20310;-77
2021/03/01 10:54:16;;;;;;;20.40;11.18;;;8.60;93.80;;;;;;4976953;28;20057;-77
2021/03/01 10:56:42;;;;;;;19.00;10.85;;;8.60;94.20;;;;;;5013144;28;20082;-77
2021/03/01 10:59:07;;;;;;;18.52;10.88;;;8.70;94.10;;;;;;4983298;28;20359;-77
2021/03/01 11:01:36;;;;;;;18.35;11.23;;;8.80;93.80;;;;;;5011267;28;20065;-77
2021/03/01 11:04:02;;;;;;;18.15;10.60;;;8.80;94.20;;;;;;4989353;28;20060;-77
2021/03/01 11:06:28;;;;;;;17.65;10.10;;;8.90;93.90;;;;;;4992741;28;20045;-77
2021/03/01 11:08:53;;;;;;;24.52;12.82;;;9.00;94.40;;;;;;4995594;28;20064;-77
2021/03/01 11:11:19;;;;;;;24.83;13.55;;;9.10;94.50;;;;;;5010421;28;20980;-77
2021/03/01 11:13:44;;;;;;;21.90;12.10;;;9.30;94.60;;;;;;4994692;28;20025;-77
2021/03/01 11:16:10;;;;;;;22.05;12.98;;;9.40;94.60;;;;;;4983024;28;20033;-77
2021/03/01 11:18:36;;;;;;;22.48;12.55;;;9.50;94.20;;;;;;5011993;28;20346;-77
2021/03/01 11:21:01;;;;;;;20.58;12.68;;;9.60;94.10;;;;;;4992052;28;20029;-77
2021/03/01 11:23:27;;;;;;;20.42;11.48;;;9.70;93.80;;;;;;5003201;28;20042;-77
2021/03/01 11:25:52;;;;;;;20.65;13.32;;;9.70;93.90;;;;;;4993313;28;20037;-77
2021/03/01 11:28:18;;;;;;;24.33;12.02;;;9.80;93.20;;;;;;5008420;28;20037;-77
2021/03/01 11:30:44;;;;;;;18.75;11.77;;;9.80;92.70;;;;;;4995958;28;20179;-77
2021/03/01 11:33:09;;;;;;;20.77;11.43;;;9.80;93.50;;;;;;4986565;28;20025;-77
2021/03/01 11:35:35;;;;;;;21.77;12.65;;;9.90;93.50;;;;;;4994949;28;20040;-77
2021/03/01 11:38:01;;;;;;;20.50;11.80;;;9.90;93.20;;;;;;4995437;28;20029;-77
2021/03/01 11:40:28;;;;;;;18.85;11.23;;;9.90;93.00;;;;;;4992372;28;20036;-77
2021/03/01 11:42:53;;;;;;;20.65;11.68;;;10.00;92.60;;;;;;5009104;28;20043;-77
2021/03/01 11:45:19;;;;;;;23.35;11.98;;;10.00;92.40;;;;;;4993649;28;20033;-77
2021/03/01 11:47:44;;;;;;;21.73;11.93;;;10.00;92.00;;;;;;5010615;28;20485;-78
2021/03/01 11:50:10;;;;;;;20.05;11.15;;;10.00;91.40;;;;;;4993323;28;20034;-77
2021/03/01 11:52:35;;;;;;;18.98;10.90;;;10.10;91.50;;;;;;4983656;28;20045;-77
2021/03/01 11:55:01;;;;;;;18.17;10.82;;;10.10;91.30;;;;;;4992558;28;20079;-77
2021/03/01 11:57:27;;;;;;;18.17;11.38;;;10.20;91.50;;;;;;4992719;28;20029;-77
2021/03/01 11:59:53;;;;;;;20.67;11.45;;;10.20;91.10;;;;;;4990961;28;20384;-77
2021/03/01 12:02:26;;;;;;;17.69;11.59;;;10.30;91.60;;;;;;4905808;28;10001058;-77
2021/03/01 12:04:52;;;;;;;22.92;12.05;;;10.30;90.70;;;;;;5007024;28;20725;-77
2021/03/01 12:07:17;;;;;;;20.17;11.55;;;10.40;91.40;;;;;;4986107;28;20042;-77
2021/03/01 12:09:43;;;;;;;20.50;11.75;;;10.40;91.10;;;;;;5009088;28;20041;-77
2021/03/01 12:12:08;;;;;;;19.15;10.98;;;10.40;90.70;;;;;;5005421;28;20052;-78
2021/03/01 12:14:34;;;;;;;22.10;12.15;;;10.40;91.20;;;;;;4992565;28;20072;-77
2021/03/01 12:17:00;;;;;;;19.83;11.18;;;10.40;90.20;;;;;;4983208;28;20112;-77
2021/03/01 12:19:25;;;;;;;20.23;12.23;;;10.50;90.70;;;;;;4991988;28;20036;-77
2021/03/01 12:21:51;;;;;;;27.63;13.40;;;10.50;89.70;;;;;;4979543;28;20548;-77
2021/03/01 12:24:16;;;;;;;20.50;12.45;;;10.60;89.70;;;;;;5006221;28;20112;-76
2021/03/01 12:26:42;;;;;;;19.48;11.63;;;10.70;90.30;;;;;;5009778;28;20034;-76
2021/03/01 12:29:08;;;;;;;24.92;14.30;;;10.70;89.60;;;;;;4992847;28;20036;-76
2021/03/01 12:31:34;;;;;;;22.42;12.77;;;10.60;88.40;;;;;;5007485;28;20052;-77
2021/03/01 12:34:01;;;;;;;20.33;11.88;;;10.60;89.70;;;;;;4993197;28;20036;-76
2021/03/01 12:36:26;;;;;;;22.60;12.88;;;10.60;89.40;;;;;;4991738;28;20037;-76
2021/03/01 12:38:52;;;;;;;22.90;13.15;;;10.50;89.00;;;;;;5002713;28;20523;-75